createdAt,value
2023-01-26T00:01:08.627Z,11.83
2023-01-26T00:03:35.238Z,13.67
2023-01-26T00:06:10.356Z,14.00
2023-01-26T00:08:42.333Z,14.27
2023-01-26T00:11:11.501Z,13.20
2023-01-26T00:13:38.731Z,14.00
2023-01-26T00:16:09.761Z,14.40
2023-01-26T00:18:39.094Z,14.23
2023-01-26T00:21:07.358Z,13.67
2023-01-26T00:23:35.131Z,13.17
2023-01-26T00:26:02.861Z,13.53
2023-01-26T00:28:29.488Z,13.47
2023-01-26T00:31:10.900Z,13.80
2023-01-26T00:33:37.395Z,13.60
2023-01-26T00:36:04.268Z,14.40
2023-01-26T00:38:30.714Z,14.23
2023-01-26T00:40:57.251Z,13.80
2023-01-26T00:43:23.645Z,13.20
2023-01-26T00:45:50.407Z,14.07
2023-01-26T00:48:17.153Z,14.23
2023-01-26T00:50:43.897Z,14.27
2023-01-26T00:53:11.234Z,13.77
2023-01-26T00:55:41.210Z,15.30
2023-01-26T00:58:08.814Z,15.85
2023-01-26T01:00:38.745Z,15.17
2023-01-26T01:03:07.414Z,15.52
2023-01-26T01:05:34.970Z,15.47
2023-01-26T01:08:02.045Z,15.10
2023-01-26T01:10:28.794Z,14.77
2023-01-26T01:12:56.133Z,16.50
2023-01-26T01:15:22.712Z,15.60
2023-01-26T01:17:49.290Z,15.83
2023-01-26T01:20:16.040Z,15.33
2023-01-26T01:22:42.658Z,16.50
2023-01-26T01:25:11.240Z,16.50
2023-01-26T01:27:37.749Z,18.33
2023-01-26T01:30:05.336Z,15.67
2023-01-26T01:32:31.986Z,17.27
2023-01-26T01:34:58.488Z,15.40
2023-01-26T01:37:24.992Z,16.43
2023-01-26T01:39:51.532Z,16.37
2023-01-26T01:42:18.019Z,14.97
2023-01-26T01:45:09.037Z,14.97
2023-01-26T01:50:02.491Z,14.47
2023-01-26T01:52:31.591Z,15.10
2023-01-26T01:55:05.853Z,17.27
2023-01-26T01:57:36.928Z,16.90
2023-01-26T02:00:10.506Z,15.83
2023-01-26T02:02:38.225Z,16.13
2023-01-26T02:05:17.047Z,15.80
2023-01-26T02:07:44.174Z,16.60
2023-01-26T02:10:11.437Z,17.00
2023-01-26T02:12:38.471Z,15.30
2023-01-26T02:15:05.345Z,15.90
2023-01-26T02:17:32.121Z,15.97
2023-01-26T02:20:13.134Z,14.90
2023-01-26T02:22:49.342Z,16.00
2023-01-26T02:25:51.188Z,16.53
2023-01-26T02:28:20.702Z,17.43
2023-01-26T02:30:47.294Z,15.27
2023-01-26T02:33:20.386Z,16.10
2023-01-26T02:35:46.905Z,17.03
2023-01-26T02:38:13.411Z,16.23
2023-01-26T02:40:55.233Z,15.57
2023-01-26T02:43:25.057Z,16.23
2023-01-26T02:45:51.685Z,15.23
2023-01-26T02:48:20.809Z,16.47
2023-01-26T02:50:47.245Z,17.80
2023-01-26T02:53:13.987Z,16.17
2023-01-26T02:55:40.411Z,15.67
2023-01-26T02:58:07.099Z,15.67
2023-01-26T03:00:36.168Z,15.40
2023-01-26T03:03:10.025Z,17.93
2023-01-26T03:05:37.097Z,16.87
2023-01-26T03:08:03.572Z,17.50
2023-01-26T03:10:29.982Z,16.63
2023-01-26T03:12:56.408Z,15.60
2023-01-26T03:15:22.811Z,15.80
2023-01-26T03:17:49.442Z,16.57
2023-01-26T03:20:16.098Z,15.57
2023-01-26T03:22:42.426Z,15.83
2023-01-26T03:25:09.617Z,14.77
2023-01-26T03:27:48.459Z,15.90
2023-01-26T03:30:18.309Z,14.60
2023-01-26T03:32:45.059Z,14.13
2023-01-26T03:35:11.481Z,15.30
2023-01-26T03:37:38.087Z,15.13
2023-01-26T03:40:05.827Z,14.10
2023-01-26T03:42:32.301Z,13.97
2023-01-26T03:44:58.624Z,13.27
2023-01-26T03:47:25.054Z,14.97
2023-01-26T03:49:51.532Z,13.27
2023-01-26T03:52:17.947Z,14.20
2023-01-26T03:54:44.452Z,14.53
2023-01-26T03:57:11.462Z,13.07
2023-01-26T03:59:38.004Z,14.10
2023-01-26T04:02:09.612Z,13.77
2023-01-26T04:04:36.110Z,12.93
2023-01-26T04:07:02.625Z,14.67
2023-01-26T04:09:29.910Z,13.77
2023-01-26T04:11:56.338Z,13.13
2023-01-26T04:14:23.025Z,14.63
2023-01-26T04:16:49.367Z,12.33
2023-01-26T04:19:15.786Z,12.93
2023-01-26T04:21:42.270Z,14.53
2023-01-26T04:24:08.821Z,13.13
2023-01-26T04:26:36.970Z,13.77
2023-01-26T04:29:14.983Z,13.87
2023-01-26T04:31:42.192Z,15.63
2023-01-26T04:34:14.525Z,14.50
2023-01-26T04:36:42.049Z,17.20
2023-01-26T04:39:09.008Z,16.50
2023-01-26T04:41:36.548Z,15.27
2023-01-26T04:44:03.041Z,15.93
2023-01-26T04:46:29.752Z,15.20
2023-01-26T04:48:56.619Z,15.97
2023-01-26T04:51:23.283Z,16.10
2023-01-26T04:53:50.310Z,15.50
2023-01-26T04:56:29.927Z,16.47
2023-01-26T04:58:59.456Z,17.00
2023-01-26T05:01:26.230Z,16.73
2023-01-26T05:03:53.760Z,15.63
2023-01-26T05:06:21.043Z,16.03
2023-01-26T05:08:47.570Z,15.50
2023-01-26T05:11:14.007Z,15.63
2023-01-26T05:13:40.457Z,14.53
2023-01-26T05:16:07.421Z,12.03
2023-01-26T05:18:34.040Z,12.17
2023-01-26T05:21:00.807Z,11.87
2023-01-26T05:23:28.346Z,13.07
2023-01-26T05:25:55.308Z,12.70
2023-01-26T05:28:21.951Z,11.77
2023-01-26T05:30:49.374Z,12.03
2023-01-26T05:33:16.157Z,11.67
2023-01-26T05:35:42.974Z,9.40
2023-01-26T05:38:09.496Z,11.13
2023-01-26T05:40:36.110Z,12.17
2023-01-26T05:43:03.638Z,10.47
2023-01-26T05:45:30.319Z,10.80
2023-01-26T05:47:56.768Z,11.53
2023-01-26T05:50:23.140Z,9.97
2023-01-26T05:52:49.564Z,9.33
2023-01-26T05:55:16.171Z,9.90
2023-01-26T05:57:42.638Z,10.00
2023-01-26T06:00:10.871Z,10.23
2023-01-26T06:02:37.604Z,10.03
2023-01-26T06:05:05.249Z,10.77
2023-01-26T06:07:32.342Z,10.23
2023-01-26T06:09:59.019Z,10.60
2023-01-26T06:12:25.534Z,10.43
2023-01-26T06:14:51.947Z,10.70
2023-01-26T06:17:18.790Z,10.03
2023-01-26T06:19:45.299Z,10.20
2023-01-26T06:22:13.583Z,10.57
2023-01-26T06:24:41.219Z,9.60
2023-01-26T06:27:12.900Z,9.90
2023-01-26T06:29:39.416Z,9.30
2023-01-26T06:32:06.429Z,10.77
2023-01-26T06:34:33.213Z,10.00
2023-01-26T06:36:59.768Z,11.10
2023-01-26T06:39:26.262Z,11.00
2023-01-26T06:41:52.864Z,10.47
2023-01-26T06:44:19.409Z,11.70
2023-01-26T06:46:45.930Z,10.20
2023-01-26T06:49:12.704Z,10.60
2023-01-26T06:51:42.824Z,10.33
2023-01-26T06:54:11.315Z,9.10
2023-01-26T06:56:38.022Z,10.27
2023-01-26T06:59:05.302Z,9.80
2023-01-26T07:01:37.640Z,9.00
2023-01-26T07:04:04.159Z,9.47
2023-01-26T07:06:30.615Z,9.43
2023-01-26T07:08:57.276Z,9.90
2023-01-26T07:11:24.833Z,9.80
2023-01-26T07:13:51.623Z,9.57
2023-01-26T07:16:19.893Z,10.23
2023-01-26T07:18:47.550Z,10.67
2023-01-26T07:21:16.932Z,9.43
2023-01-26T07:23:43.714Z,10.13
2023-01-26T07:26:10.745Z,9.93
2023-01-26T07:28:40.019Z,9.50
2023-01-26T07:31:10.553Z,9.93
2023-01-26T07:33:37.208Z,8.85
2023-01-26T07:36:04.101Z,9.57
2023-01-26T07:38:30.838Z,8.03
2023-01-26T07:40:57.647Z,8.23
2023-01-26T07:43:24.479Z,9.10
2023-01-26T07:45:54.852Z,8.97
2023-01-26T07:48:24.056Z,10.00
2023-01-26T07:50:51.303Z,9.83
2023-01-26T07:53:19.100Z,8.83
2023-01-26T07:55:46.781Z,9.83
2023-01-26T07:58:13.221Z,10.03
2023-01-26T08:00:39.734Z,9.83
2023-01-26T08:03:06.518Z,9.97
2023-01-26T08:05:33.664Z,10.33
2023-01-26T08:08:00.732Z,9.97
2023-01-26T08:10:30.824Z,11.43
2023-01-26T08:13:00.105Z,9.23
2023-01-26T08:15:27.100Z,8.33
2023-01-26T08:17:54.711Z,9.80
2023-01-26T08:20:21.278Z,10.70
2023-01-26T08:22:47.695Z,11.10
2023-01-26T08:25:14.241Z,10.10
2023-01-26T08:27:40.701Z,9.80
2023-01-26T08:30:07.941Z,9.80
2023-01-26T08:32:34.590Z,9.90
2023-01-26T08:35:01.123Z,10.70
2023-01-26T08:37:27.573Z,10.70
2023-01-26T08:39:54.060Z,9.57
2023-01-26T08:42:22.763Z,9.73
2023-01-26T08:44:49.509Z,10.23
2023-01-26T08:47:15.891Z,9.87
2023-01-26T08:49:42.333Z,9.93
2023-01-26T08:52:09.045Z,10.83
2023-01-26T08:54:35.499Z,10.53
2023-01-26T08:57:01.969Z,10.03
2023-01-26T08:59:28.557Z,10.57
2023-01-26T09:01:55.083Z,10.27
2023-01-26T09:04:21.671Z,10.00
2023-01-26T09:06:48.095Z,9.73
2023-01-26T09:09:14.602Z,10.23
2023-01-26T09:11:41.117Z,10.37
2023-01-26T09:14:07.627Z,8.87
2023-01-26T09:16:34.345Z,8.83
2023-01-26T09:19:00.919Z,9.63
2023-01-26T09:21:27.503Z,8.83
2023-01-26T09:23:58.463Z,9.90
2023-01-26T09:26:24.962Z,9.50
2023-01-26T09:28:52.680Z,11.27
2023-01-26T09:31:19.477Z,10.43
2023-01-26T09:33:46.196Z,9.70
2023-01-26T09:36:12.718Z,9.80
2023-01-26T09:38:40.368Z,11.23
2023-01-26T09:41:34.625Z,10.53
2023-01-26T09:44:06.037Z,14.03
2023-01-26T09:46:46.431Z,11.70
2023-01-26T09:49:28.387Z,11.05
2023-01-26T09:52:14.785Z,11.43
2023-01-26T09:54:52.014Z,11.00
2023-01-26T09:57:41.781Z,10.33
2023-01-26T10:00:33.812Z,10.07
2023-01-26T10:03:29.324Z,11.43
2023-01-26T10:06:05.235Z,10.50
2023-01-26T10:08:31.791Z,9.40
2023-01-26T10:11:10.054Z,8.60
2023-01-26T10:13:36.921Z,8.57
2023-01-26T10:16:08.800Z,7.40
2023-01-26T10:18:53.453Z,8.37
2023-01-26T10:21:28.980Z,10.50
2023-01-26T10:23:58.698Z,7.53
2023-01-26T10:26:31.074Z,10.37
2023-01-26T10:28:58.174Z,9.83
2023-01-26T10:31:30.584Z,8.50
2023-01-26T10:34:00.714Z,8.57
2023-01-26T10:36:31.658Z,7.85
2023-01-26T10:41:35.249Z,8.77
2023-01-26T10:44:13.204Z,8.13
2023-01-26T10:46:42.509Z,10.13
2023-01-26T10:49:09.148Z,9.73
2023-01-26T10:51:37.706Z,7.80
2023-01-26T10:54:23.606Z,7.90
2023-01-26T10:56:51.990Z,7.27
2023-01-26T10:59:30.103Z,8.23
2023-01-26T11:02:00.383Z,7.37
2023-01-26T11:04:28.268Z,7.72
2023-01-26T11:06:54.992Z,7.83
2023-01-26T11:09:27.713Z,7.73
2023-01-26T11:12:04.549Z,7.23
2023-01-26T11:14:32.319Z,8.30
2023-01-26T11:17:01.721Z,9.00
2023-01-26T11:19:50.754Z,9.00
2023-01-26T11:22:39.216Z,9.30
2023-01-26T11:25:48.507Z,9.37
2023-01-26T11:28:52.684Z,11.10
2023-01-26T11:31:46.021Z,10.93
2023-01-26T11:34:16.509Z,11.13
2023-01-26T11:36:57.905Z,11.75
2023-01-26T11:39:30.131Z,10.37
2023-01-26T11:42:21.898Z,11.60
2023-01-26T11:44:57.620Z,12.47
2023-01-26T11:48:08.208Z,11.73
2023-01-26T11:50:45.895Z,12.10
2023-01-26T11:53:30.204Z,12.70
2023-01-26T11:56:16.553Z,11.40
2023-01-26T11:58:57.431Z,11.97
2023-01-26T12:01:28.207Z,12.13
2023-01-26T12:06:39.719Z,12.47
2023-01-26T12:09:23.329Z,11.97
2023-01-26T12:12:00.348Z,10.90
2023-01-26T12:14:36.683Z,12.53
2023-01-26T12:17:18.674Z,11.07
2023-01-26T12:19:53.964Z,10.27
2023-01-26T12:22:34.512Z,11.17
2023-01-26T12:25:20.507Z,11.00
2023-01-26T12:27:58.782Z,12.33
2023-01-26T12:30:43.663Z,10.27
2023-01-26T12:33:10.942Z,11.10
2023-01-26T12:35:58.361Z,10.20
2023-01-26T12:38:43.160Z,11.30
2023-01-26T12:41:37.717Z,8.47
2023-01-26T12:44:32.657Z,10.37
2023-01-26T12:47:38.445Z,8.97
2023-01-26T12:50:37.448Z,10.33
2023-01-26T12:53:28.680Z,10.10
2023-01-26T12:56:29.166Z,10.10
2023-01-26T12:58:58.301Z,10.05
2023-01-26T13:01:37.167Z,9.00
2023-01-26T13:04:10.915Z,9.00
2023-01-26T13:06:37.461Z,9.53
2023-01-26T13:09:25.799Z,10.27
2023-01-26T13:11:59.530Z,9.10
2023-01-26T13:14:32.807Z,8.70
2023-01-26T13:17:23.419Z,8.53
2023-01-26T13:19:54.668Z,8.75
2023-01-26T13:22:24.926Z,9.70
2023-01-26T13:25:16.252Z,6.53
2023-01-26T13:27:47.409Z,10.50
2023-01-26T13:30:25.877Z,8.63
2023-01-26T13:33:04.237Z,9.23
2023-01-26T13:35:31.491Z,10.53
2023-01-26T13:38:05.194Z,10.23
2023-01-26T13:40:35.625Z,10.70
2023-01-26T13:43:27.207Z,10.02
2023-01-26T13:46:12.568Z,9.33
2023-01-26T13:48:52.308Z,10.27
2023-01-26T13:51:26.718Z,11.13
2023-01-26T13:54:13.619Z,10.23
2023-01-26T13:56:43.937Z,10.60
2023-01-26T13:59:13.214Z,10.40
2023-01-26T14:01:54.721Z,11.00
2023-01-26T14:04:23.969Z,11.13
2023-01-26T14:07:04.289Z,11.30
2023-01-26T14:09:34.683Z,13.57
2023-01-26T14:12:04.970Z,11.15
2023-01-26T14:14:36.224Z,10.52
2023-01-26T14:17:27.718Z,10.27
2023-01-26T14:19:54.392Z,12.40
2023-01-26T14:22:22.562Z,11.33
2023-01-26T14:24:50.957Z,10.13
2023-01-26T14:27:37.973Z,11.43
2023-01-26T14:30:28.115Z,10.00
2023-01-26T14:33:01.996Z,9.50
2023-01-26T14:35:28.947Z,9.67
2023-01-26T14:38:13.640Z,10.53
2023-01-26T14:40:53.873Z,10.77
2023-01-26T14:43:22.259Z,10.07
2023-01-26T14:46:10.308Z,9.63
2023-01-26T14:49:02.071Z,8.53
2023-01-26T14:51:31.311Z,11.23
2023-01-26T14:54:05.054Z,11.83
2023-01-26T14:56:38.282Z,13.07
2023-01-26T14:59:08.592Z,13.37
2023-01-26T15:01:35.401Z,12.15
2023-01-26T15:04:21.197Z,15.10
2023-01-26T15:06:47.622Z,13.43
2023-01-26T15:09:20.795Z,12.17
2023-01-26T15:11:56.041Z,13.93
2023-01-26T15:14:48.560Z,13.30
2023-01-26T15:17:36.559Z,12.87
2023-01-26T15:20:25.597Z,12.10
2023-01-26T15:22:53.888Z,11.77
2023-01-26T15:25:28.697Z,12.30
2023-01-26T15:27:58.765Z,13.40
2023-01-26T15:30:31.494Z,11.73
2023-01-26T15:32:58.426Z,14.43
2023-01-26T15:35:34.635Z,14.20
2023-01-26T15:38:04.260Z,15.03
2023-01-26T15:40:31.969Z,16.50
2023-01-26T15:43:10.449Z,17.13
2023-01-26T15:45:37.534Z,17.43
2023-01-26T15:48:04.281Z,16.63
2023-01-26T15:50:30.722Z,16.43
2023-01-26T15:52:57.095Z,14.60
2023-01-26T15:55:30.931Z,15.50
2023-01-26T15:57:57.346Z,15.30
2023-01-26T16:00:24.132Z,16.07
2023-01-26T16:02:51.245Z,15.90
2023-01-26T16:05:22.997Z,15.63
2023-01-26T16:07:49.592Z,16.30
2023-01-26T16:10:18.404Z,16.63
2023-01-26T16:12:47.333Z,15.53
2023-01-26T16:15:48.101Z,14.53
2023-01-26T16:18:15.694Z,14.52
2023-01-26T16:20:44.482Z,14.80
2023-01-26T16:23:17.951Z,14.77
2023-01-26T16:25:44.462Z,13.70
2023-01-26T16:28:10.884Z,14.43
2023-01-26T16:30:37.464Z,12.97
2023-01-26T16:33:04.438Z,14.67
2023-01-26T16:35:31.189Z,14.53
2023-01-26T16:37:57.706Z,12.90
2023-01-26T16:40:24.133Z,14.77
2023-01-26T16:42:53.446Z,13.23
2023-01-26T16:45:24.790Z,14.27
2023-01-26T16:47:53.715Z,12.43
2023-01-26T16:50:20.276Z,13.97
2023-01-26T16:52:46.980Z,14.80
2023-01-26T16:55:14.692Z,15.00
2023-01-26T16:57:42.222Z,13.23
2023-01-26T17:00:13.776Z,14.13
2023-01-26T17:02:41.946Z,11.93
2023-01-26T17:05:16.962Z,11.93
2023-01-26T17:07:43.674Z,11.73
2023-01-26T17:10:11.828Z,13.27
2023-01-26T17:12:38.472Z,12.33
2023-01-26T17:15:06.150Z,11.37
2023-01-26T17:17:32.706Z,11.67
2023-01-26T17:20:18.003Z,10.30
2023-01-26T17:22:46.088Z,12.07
2023-01-26T17:25:15.981Z,14.70
2023-01-26T17:27:43.687Z,11.35
2023-01-26T17:30:11.959Z,12.07
2023-01-26T17:32:38.405Z,12.53
2023-01-26T17:35:05.162Z,12.03
2023-01-26T17:37:31.700Z,12.33
2023-01-26T17:39:58.040Z,11.83
2023-01-26T17:42:24.459Z,12.33
2023-01-26T17:44:51.144Z,12.43
2023-01-26T17:47:17.543Z,12.33
2023-01-26T17:49:43.975Z,12.83
2023-01-26T17:52:10.320Z,14.33
2023-01-26T17:54:36.692Z,13.33
2023-01-26T17:57:03.333Z,11.37
2023-01-26T17:59:29.677Z,11.30
2023-01-26T18:01:56.212Z,11.93
2023-01-26T18:04:22.837Z,11.23
2023-01-26T18:06:49.347Z,9.77
2023-01-26T18:09:15.905Z,9.93
2023-01-26T18:11:42.311Z,9.80
2023-01-26T18:14:08.829Z,9.53
2023-01-26T18:16:36.237Z,11.27
2023-01-26T18:19:02.718Z,12.47
2023-01-26T18:21:29.793Z,11.60
2023-01-26T18:24:00.188Z,11.50
2023-01-26T18:26:29.571Z,10.93
2023-01-26T18:28:55.987Z,10.33
2023-01-26T18:31:27.980Z,11.73
2023-01-26T18:33:56.270Z,10.30
2023-01-26T18:36:22.941Z,10.33
2023-01-26T18:39:03.080Z,11.27
2023-01-26T18:41:29.891Z,10.45
2023-01-26T18:43:57.237Z,10.90
2023-01-26T18:46:24.566Z,10.00
2023-01-26T18:48:56.282Z,10.60
2023-01-26T18:51:22.718Z,10.50
2023-01-26T18:53:49.137Z,9.90
2023-01-26T18:56:17.509Z,11.47
2023-01-26T18:58:44.525Z,10.77
2023-01-26T19:01:15.930Z,10.77
2023-01-26T19:03:43.527Z,10.43
2023-01-26T19:06:09.933Z,11.07
2023-01-26T19:08:36.695Z,11.93
2023-01-26T19:11:07.370Z,12.93
2023-01-26T19:13:35.665Z,11.85
2023-01-26T19:16:02.971Z,12.77
2023-01-26T19:18:29.490Z,12.13
2023-01-26T19:20:57.895Z,12.30
2023-01-26T19:23:24.688Z,11.80
2023-01-26T19:25:51.036Z,13.20
2023-01-26T19:28:17.965Z,12.43
2023-01-26T19:30:44.699Z,12.40
2023-01-26T19:33:11.463Z,13.83
2023-01-26T19:35:38.746Z,13.00
2023-01-26T19:38:05.799Z,14.90
2023-01-26T19:40:33.544Z,15.37
2023-01-26T19:42:59.970Z,14.27
2023-01-26T19:45:26.588Z,14.73
2023-01-26T19:47:53.181Z,14.33
2023-01-26T19:50:19.784Z,15.90
2023-01-26T19:52:46.173Z,14.70
2023-01-26T19:55:13.037Z,15.33
2023-01-26T19:57:39.613Z,15.50
2023-01-26T20:00:06.868Z,15.17
2023-01-26T20:02:33.730Z,15.40
2023-01-26T20:05:00.136Z,13.90
2023-01-26T20:07:26.503Z,14.40
2023-01-26T20:09:52.890Z,14.63
2023-01-26T20:12:19.506Z,14.37
2023-01-26T20:14:46.125Z,14.10
2023-01-26T20:17:13.784Z,13.47
2023-01-26T20:19:40.218Z,13.20
2023-01-26T20:22:06.761Z,12.83
2023-01-26T20:24:34.262Z,12.17
2023-01-26T20:27:00.695Z,12.37
2023-01-26T20:29:27.079Z,13.43
2023-01-26T20:31:53.642Z,11.60
2023-01-26T20:34:20.086Z,12.53
2023-01-26T20:36:46.735Z,13.50
2023-01-26T20:39:16.267Z,11.90
2023-01-26T20:41:42.792Z,13.07
2023-01-26T20:44:10.282Z,12.17
2023-01-26T20:46:39.352Z,12.70
2023-01-26T20:49:10.649Z,13.97
2023-01-26T20:51:37.639Z,13.47
2023-01-26T20:54:07.482Z,13.60
2023-01-26T20:56:34.473Z,9.40
2023-01-26T20:59:01.684Z,12.70
2023-01-26T21:01:28.404Z,13.60
2023-01-26T21:03:55.258Z,12.57
2023-01-26T21:06:22.654Z,11.80
2023-01-26T21:08:52.626Z,12.13
2023-01-26T21:11:20.358Z,9.93
2023-01-26T21:13:46.818Z,13.43
2023-01-26T21:16:16.743Z,12.07
2023-01-26T21:18:43.459Z,11.90
2023-01-26T21:21:13.470Z,13.13
2023-01-26T21:23:40.427Z,12.98
2023-01-26T21:26:10.398Z,13.30
2023-01-26T21:28:36.787Z,12.93
2023-01-26T21:31:04.758Z,13.37
2023-01-26T21:33:32.545Z,13.93
2023-01-26T21:36:01.429Z,14.43
2023-01-26T21:38:30.873Z,14.03
2023-01-26T21:41:05.682Z,14.47
2023-01-26T21:43:32.089Z,13.83
2023-01-26T21:45:59.045Z,15.13
2023-01-26T21:48:25.768Z,13.83
2023-01-26T21:50:56.094Z,14.17
2023-01-26T21:53:22.703Z,15.00
2023-01-26T21:55:49.119Z,15.10
2023-01-26T21:58:15.853Z,14.10
2023-01-26T22:00:42.238Z,14.73
2023-01-26T22:03:08.637Z,14.40
2023-01-26T22:05:35.058Z,14.83
2023-01-26T22:08:01.904Z,14.00
2023-01-26T22:10:28.380Z,14.73
2023-01-26T22:12:54.885Z,15.70
2023-01-26T22:15:21.235Z,15.90
2023-01-26T22:17:47.784Z,16.97
2023-01-26T22:20:14.504Z,15.13
2023-01-26T22:22:41.177Z,15.57
2023-01-26T22:25:10.109Z,16.23
2023-01-26T22:27:39.769Z,15.93
2023-01-26T22:30:07.015Z,17.13
2023-01-26T22:32:33.482Z,17.63
2023-01-26T22:34:59.909Z,15.50
2023-01-26T22:37:26.501Z,17.57
2023-01-26T22:39:52.835Z,17.53
2023-01-26T22:42:21.381Z,16.67
2023-01-26T22:44:47.779Z,16.73
2023-01-26T22:47:14.235Z,16.10
2023-01-26T22:49:40.683Z,16.00
2023-01-26T22:52:09.806Z,15.43
2023-01-26T22:54:36.272Z,14.97
2023-01-26T22:57:02.664Z,15.57
2023-01-26T22:59:29.048Z,15.03
2023-01-26T23:01:56.962Z,15.20
2023-01-26T23:04:23.643Z,16.30
2023-01-26T23:06:50.162Z,15.00
2023-01-26T23:09:16.839Z,17.30
2023-01-26T23:11:43.581Z,17.83
2023-01-26T23:14:09.965Z,18.80
2023-01-26T23:16:36.620Z,18.40
2023-01-26T23:19:03.297Z,17.57
2023-01-26T23:21:29.735Z,18.67
2023-01-26T23:23:56.658Z,17.80
2023-01-26T23:26:24.589Z,17.83
2023-01-26T23:28:51.144Z,17.40
2023-01-26T23:31:19.650Z,17.50
2023-01-26T23:33:46.754Z,19.17
2023-01-26T23:36:14.168Z,18.67
2023-01-26T23:38:41.252Z,16.03
2023-01-26T23:41:07.922Z,15.73
2023-01-26T23:43:34.667Z,15.37
2023-01-26T23:46:01.103Z,15.83
2023-01-26T23:48:27.694Z,15.40
2023-01-26T23:50:58.641Z,16.20
2023-01-26T23:53:25.228Z,15.10
2023-01-26T23:55:52.541Z,17.07
2023-01-26T23:58:19.460Z,15.60
